Time;durP1;ratioP1;P1;durP2;ratioP2;P2;SDS_P1;SDS_P2;PMS_P1;PMS_P2;Temp;Humidity;BMP_temperature;BMP_pressure;BME280_temperature;BME280_humidity;BME280_pressure;Samples;Min_cycle;Max_cycle;Signal;HPM_P1;HPM_P2
2022/06/11 00:00:57;;;;;;;10.30;9.20;;;;;;;14.26;100.00;96987.84;5029479;27;102496;-63
2022/06/11 00:03:24;;;;;;;6.57;5.87;;;;;;;14.24;100.00;96986.50;5030988;28;104037;-63
2022/06/11 00:05:53;;;;;;;4.47;4.07;;;;;;;14.15;100.00;96979.97;5031863;27;102657;-63
2022/06/11 00:08:21;;;;;;;3.90;3.60;;;;;;;14.06;100.00;96982.31;5036111;28;101942;-63
2022/06/11 00:10:49;;;;;;;3.70;3.30;;;;;;;14.00;100.00;96986.03;5031766;28;102543;-63
2022/06/11 00:13:16;;;;;;;3.93;2.87;;;;;;;13.96;100.00;96989.50;5032551;28;101917;-63
2022/06/11 00:15:50;;;;;;;3.60;3.30;;;;;;;13.65;100.00;96984.97;5032407;27;102322;-63
2022/06/11 00:18:18;;;;;;;3.67;3.33;;;;;;;13.60;100.00;96983.06;5031958;28;102582;-63
2022/06/11 00:20:46;;;;;;;3.63;3.33;;;;;;;13.60;100.00;96980.38;5032558;27;101730;-63
2022/06/11 00:23:13;;;;;;;3.63;2.97;;;;;;;13.52;100.00;96980.84;5030830;28;105514;-63
2022/06/11 00:25:48;;;;;;;3.40;3.10;;;;;;;13.49;100.00;96989.38;5031701;28;103220;-63
2022/06/11 00:28:16;;;;;;;3.70;3.40;;;;;;;13.53;100.00;96982.44;5030789;28;101869;-63
2022/06/11 00:30:43;;;;;;;5.03;3.20;;;;;;;13.47;100.00;96985.34;5035040;28;102371;-63
2022/06/11 00:33:10;;;;;;;3.83;3.33;;;;;;;13.57;100.00;96980.09;5030492;28;101935;-63
2022/06/11 00:35:39;;;;;;;3.73;3.30;;;;;;;13.41;100.00;96979.13;5032240;28;102919;-63
2022/06/11 00:38:07;;;;;;;3.97;3.53;;;;;;;13.41;100.00;96978.34;5030162;28;105531;-63
2022/06/11 00:40:36;;;;;;;3.90;3.60;;;;;;;13.39;100.00;96978.59;5030690;28;101906;-63
2022/06/11 00:43:06;;;;;;;3.90;3.53;;;;;;;13.44;100.00;96972.47;5031786;28;102655;-63
2022/06/11 00:45:56;;;;;;;3.40;3.10;;;;;;;13.41;100.00;96960.44;5029873;28;105517;-63
2022/06/11 00:48:42;;;;;;;4.37;3.97;;;;;;;13.40;100.00;96960.72;5032067;28;101767;-63
2022/06/11 00:51:15;;;;;;;3.60;3.30;;;;;;;13.29;100.00;96965.13;5030546;28;105362;-63
2022/06/11 00:53:47;;;;;;;3.67;3.30;;;;;;;13.35;100.00;96960.66;5034681;28;102815;-63
2022/06/11 00:56:18;;;;;;;3.57;3.27;;;;;;;13.27;100.00;96956.59;5031953;28;102883;-63
2022/06/11 00:58:49;;;;;;;4.07;3.67;;;;;;;13.26;100.00;96957.66;5029112;28;105554;-63
2022/06/11 01:01:19;;;;;;;3.57;3.27;;;;;;;13.23;100.00;96960.00;5031789;28;101968;-63
2022/06/11 01:03:48;;;;;;;3.70;3.40;;;;;;;13.21;100.00;96962.13;5031338;27;102765;-63
2022/06/11 01:06:24;;;;;;;3.70;3.40;;;;;;;13.10;100.00;96961.22;5030976;28;102690;-63
2022/06/11 01:09:02;;;;;;;3.37;3.00;;;;;;;13.10;100.00;96960.41;5030185;28;101822;-63
2022/06/11 01:11:53;;;;;;;3.20;2.90;;;;;;;13.10;100.00;96960.41;5031692;28;102954;-63
2022/06/11 01:14:45;;;;;;;5.10;3.70;;;;;;;13.07;100.00;96963.56;5030889;27;102552;-63
2022/06/11 01:17:23;;;;;;;3.73;3.43;;;;;;;13.07;100.00;96960.91;5035089;28;102035;-63
2022/06/11 01:20:11;;;;;;;3.80;3.50;;;;;;;12.98;100.00;96960.53;5030680;28;104466;-63
2022/06/11 01:23:00;;;;;;;3.70;3.40;;;;;;;12.99;100.00;96958.69;5029828;28;102119;-63
2022/06/11 01:25:32;;;;;;;3.80;3.47;;;;;;;13.09;100.00;96958.81;5029994;28;105205;-63
2022/06/11 01:28:29;;;;;;;3.60;3.30;;;;;;;13.07;100.00;96955.56;5030792;28;102600;-63
2022/06/11 01:31:05;;;;;;;4.00;3.60;;;;;;;13.14;100.00;96951.63;5031437;28;101731;-63
2022/06/11 01:33:39;;;;;;;3.63;3.33;;;;;;;13.10;100.00;96961.22;5031408;28;102491;-63
2022/06/11 01:36:12;;;;;;;3.60;3.30;;;;;;;13.14;100.00;96956.19;5030826;28;102751;-63
2022/06/11 01:38:45;;;;;;;4.43;4.03;;;;;;;13.12;100.00;96959.09;5031431;28;101726;-63
2022/06/11 01:41:26;;;;;;;4.03;3.50;;;;;;;13.19;100.00;96950.91;5034021;28;102895;-64
2022/06/11 01:43:56;;;;;;;3.63;3.33;;;;;;;13.24;100.00;96957.06;5029658;28;101949;-63
2022/06/11 01:46:27;;;;;;;3.70;3.40;;;;;;;13.24;100.00;96940.25;5031232;28;102352;-63
2022/06/11 01:49:25;;;;;;;3.43;3.23;;;;;;;13.25;100.00;96945.31;5028974;28;106355;-63
2022/06/11 01:52:03;;;;;;;3.63;3.33;;;;;;;13.26;100.00;96946.16;5030658;28;101801;-63
2022/06/11 01:54:57;;;;;;;4.27;3.87;;;;;;;13.34;100.00;96945.66;5029240;28;104496;-63
2022/06/11 01:57:41;;;;;;;4.13;3.73;;;;;;;13.32;100.00;96950.47;5030356;28;102872;-63
2022/06/11 02:00:16;;;;;;;5.17;3.90;;;;;;;13.34;100.00;96956.34;5029002;28;101975;-63
2022/06/11 02:03:03;;;;;;;4.57;3.63;;;;;;;13.37;100.00;96950.53;5033744;28;102352;-63
2022/06/11 02:06:14;;;;;;;9.03;4.03;;;;;;;13.35;100.00;96947.31;5030891;28;101706;-63
2022/06/11 02:08:53;;;;;;;4.63;3.40;;;;;;;13.32;100.00;96942.47;5029303;28;104241;-63
2022/06/11 02:11:27;;;;;;;3.70;3.40;;;;;;;13.20;100.00;96939.94;5030106;28;102742;-63
2022/06/11 02:13:58;;;;;;;4.80;4.20;;;;;;;13.11;100.00;96944.16;5030831;28;101759;-63
2022/06/11 02:16:36;;;;;;;5.90;3.87;;;;;;;13.16;100.00;96946.06;5030738;28;102608;-63
2022/06/11 02:19:36;;;;;;;5.57;4.00;;;;;;;13.11;100.00;96940.66;5028835;28;105951;-63
2022/06/11 02:22:07;;;;;;;5.80;3.73;;;;;;;13.10;100.00;96947.06;5028959;28;101781;-63
2022/06/11 02:24:39;;;;;;;3.97;3.30;;;;;;;13.05;100.00;96947.81;5028274;28;102818;-63
2022/06/11 02:27:13;;;;;;;4.47;3.40;;;;;;;12.99;100.00;96948.84;5032028;28;105383;-63
2022/06/11 02:29:41;;;;;;;3.57;3.37;;;;;;;12.96;100.00;96953.84;5030692;28;102592;-63
2022/06/11 02:32:11;;;;;;;4.87;3.30;;;;;;;12.82;100.00;96953.41;5029817;28;102906;-64
2022/06/11 02:34:46;;;;;;;3.57;3.27;;;;;;;12.77;100.00;96949.88;5030084;27;101901;-63
2022/06/11 02:37:21;;;;;;;3.73;3.33;;;;;;;12.55;100.00;96963.25;5030460;27;102397;-63
2022/06/11 02:39:50;;;;;;;4.80;3.50;;;;;;;12.63;100.00;96964.66;5029972;28;102638;-63
2022/06/11 02:42:20;;;;;;;2.83;2.60;;;;;;;12.53;100.00;96975.22;5028954;28;101839;-63
2022/06/11 02:44:48;;;;;;;3.50;3.20;;;;;;;12.45;100.00;96964.97;5030121;28;102923;-63
2022/06/11 02:47:17;;;;;;;3.53;3.00;;;;;;;12.44;100.00;96969.50;5029690;28;102895;-63
2022/06/11 02:49:47;;;;;;;5.10;3.40;;;;;;;12.50;100.00;96970.38;5032163;28;102006;-63
2022/06/11 02:52:17;;;;;;;3.60;3.30;;;;;;;12.32;100.00;96971.47;5029522;28;102774;-63
2022/06/11 02:55:25;;;;;;;5.50;3.10;;;;;;;12.41;100.00;96969.19;5028664;28;101948;-63
2022/06/11 02:57:53;;;;;;;3.10;2.90;;;;;;;12.39;100.00;96973.97;5030212;28;102409;-63
2022/06/11 03:00:23;;;;;;;3.30;3.00;;;;;;;12.40;100.00;96975.56;5029148;28;102940;-63
2022/06/11 03:02:51;;;;;;;2.93;2.63;;;;;;;12.36;100.00;96974.44;5028385;28;101843;-63
2022/06/11 03:05:32;;;;;;;3.63;3.23;;;;;;;12.35;100.00;96978.16;5029948;28;102533;-63
2022/06/11 03:08:00;;;;;;;3.33;3.13;;;;;;;12.20;100.00;96975.28;5029221;28;104292;-63
2022/06/11 03:10:28;;;;;;;3.63;3.00;;;;;;;12.18;100.00;96977.41;5029945;27;101949;-63
2022/06/11 03:12:56;;;;;;;3.17;2.87;;;;;;;12.14;100.00;96976.28;5032678;28;102845;-63
2022/06/11 03:15:26;;;;;;;2.70;2.50;;;;;;;12.12;100.00;96981.88;5029837;28;101952;-63
2022/06/11 03:17:56;;;;;;;3.37;3.00;;;;;;;12.01;100.00;96984.63;5030114;28;102397;-63
2022/06/11 03:20:25;;;;;;;3.47;3.17;;;;;;;12.06;100.00;96985.53;5027762;28;104012;-63
2022/06/11 03:22:54;;;;;;;3.43;3.10;;;;;;;12.04;100.00;96989.50;5029459;28;101815;-63
2022/06/11 03:25:21;;;;;;;2.70;2.50;;;;;;;12.01;100.00;96988.13;5029759;28;102596;-63
2022/06/11 03:27:50;;;;;;;5.27;2.93;;;;;;;11.86;100.00;96992.41;5029145;27;102539;-63
2022/06/11 03:30:18;;;;;;;3.20;2.67;;;;;;;11.83;100.00;96990.22;5028234;28;101906;-63
2022/06/11 03:32:45;;;;;;;3.27;2.57;;;;;;;11.88;100.00;96995.66;5029631;28;102705;-63
2022/06/11 03:35:14;;;;;;;3.10;2.80;;;;;;;11.91;100.00;96990.63;5030956;27;106168;-63
2022/06/11 03:37:41;;;;;;;3.40;3.10;;;;;;;11.89;100.00;96991.91;5032020;28;102302;-63
2022/06/11 03:40:12;;;;;;;3.50;3.30;;;;;;;11.94;100.00;96990.13;5030968;28;105566;-63
2022/06/11 03:42:40;;;;;;;3.47;2.80;;;;;;;11.99;100.00;96998.19;5033097;27;101848;-63
2022/06/11 03:45:10;;;;;;;4.63;3.20;;;;;;;12.01;100.00;97000.63;5032754;28;102652;-63
2022/06/11 03:47:40;;;;;;;3.57;3.27;;;;;;;12.05;100.00;96996.44;5032231;27;104271;-63
2022/06/11 03:50:10;;;;;;;3.43;3.13;;;;;;;12.16;100.00;97000.84;5032967;28;101732;-63
2022/06/11 03:52:38;;;;;;;3.87;3.57;;;;;;;12.20;100.00;97004.63;5032959;28;102583;-63
2022/06/11 03:55:13;;;;;;;3.60;3.20;;;;;;;12.24;100.00;97019.09;5032131;27;102568;-63
2022/06/11 03:57:40;;;;;;;3.53;3.23;;;;;;;12.22;100.00;97013.22;5034757;28;101844;-63
2022/06/11 04:00:11;;;;;;;3.20;2.90;;;;;;;12.30;100.00;97020.78;5030464;28;105306;-63
2022/06/11 04:02:39;;;;;;;4.07;3.60;;;;;;;12.39;100.00;97019.31;5031368;28;101968;-63
2022/06/11 04:05:22;;;;;;;3.90;3.53;;;;;;;12.47;100.00;97014.34;5031061;28;103724;-63
2022/06/11 04:07:49;;;;;;;3.23;3.03;;;;;;;12.46;100.00;97018.09;5030745;28;105487;-63
2022/06/11 04:10:18;;;;;;;3.27;3.03;;;;;;;12.55;100.00;97026.47;5032454;28;101832;-63
2022/06/11 04:12:45;;;;;;;3.67;3.30;;;;;;;12.65;100.00;97032.72;5031042;28;106310;-63
2022/06/11 04:15:13;;;;;;;3.10;2.90;;;;;;;12.75;100.00;97034.75;5031850;28;103210;-63
2022/06/11 04:18:00;;;;;;;4.03;3.50;;;;;;;12.81;100.00;97036.41;5036064;28;101735;-63
2022/06/11 04:20:27;;;;;;;3.37;3.07;;;;;;;12.84;100.00;97035.91;5031859;28;103076;-63
2022/06/11 04:22:54;;;;;;;3.60;3.30;;;;;;;12.96;100.00;97036.59;5030994;28;101964;-63
2022/06/11 04:25:27;;;;;;;3.23;2.93;;;;;;;13.03;100.00;97032.69;5032132;28;102913;-63
2022/06/11 04:27:54;;;;;;;3.37;3.07;;;;;;;13.13;100.00;97040.03;5030336;28;103984;-63
2022/06/11 04:30:23;;;;;;;3.70;3.40;;;;;;;13.24;100.00;97042.53;5030765;28;102231;-63
2022/06/11 04:32:50;;;;;;;3.83;3.53;;;;;;;13.38;100.00;97040.28;5030790;28;105914;-63
2022/06/11 04:35:27;;;;;;;4.90;3.63;;;;;;;13.52;100.00;97041.50;5031402;28;104449;-63
2022/06/11 04:37:54;;;;;;;4.20;3.80;;;;;;;13.65;100.00;97038.41;5031829;27;101937;-63
2022/06/11 04:40:22;;;;;;;3.63;3.33;;;;;;;13.79;100.00;97044.97;5033363;28;105745;-63
2022/06/11 04:42:50;;;;;;;3.47;3.17;;;;;;;13.88;100.00;97046.09;5030575;28;101893;-63
2022/06/11 04:45:21;;;;;;;3.97;3.23;;;;;;;14.00;100.00;97036.84;5031893;28;104168;-63
2022/06/11 04:48:06;;;;;;;4.10;3.80;;;;;;;14.16;100.00;97053.81;5030788;27;104282;-63
2022/06/11 04:50:34;;;;;;;3.23;3.00;;;;;;;14.25;100.00;97045.09;5030395;28;101836;-63
2022/06/11 04:53:01;;;;;;;4.17;3.87;;;;;;;14.41;100.00;97046.81;5030349;28;105235;-63
2022/06/11 04:55:29;;;;;;;3.90;3.60;;;;;;;14.50;100.00;97047.13;5029733;28;105673;-63
2022/06/11 04:57:58;;;;;;;5.27;3.80;;;;;;;14.62;100.00;97058.44;5030492;28;101933;-63
2022/06/11 05:00:29;;;;;;;4.50;4.10;;;;;;;14.77;100.00;97050.50;5031317;28;102309;-63
2022/06/11 05:02:57;;;;;;;4.57;4.17;;;;;;;14.89;100.00;97048.41;5034535;27;102796;-63
2022/06/11 05:05:31;;;;;;;5.70;4.50;;;;;;;14.91;100.00;97052.44;5031393;28;101791;-63
2022/06/11 05:07:59;;;;;;;4.97;3.60;;;;;;;15.07;100.00;97054.09;5029556;28;105920;-63
2022/06/11 05:10:29;;;;;;;4.83;4.30;;;;;;;15.14;100.00;97048.50;5030214;28;101970;-63
2022/06/11 05:12:58;;;;;;;5.10;4.13;;;;;;;15.06;100.00;97051.69;5031337;28;102892;-63
2022/06/11 05:22:10;;;;;;;4.50;4.10;;;;;;;15.61;100.00;97052.69;5029966;28;105565;-63
2022/06/11 05:24:38;;;;;;;4.33;3.93;;;;;;;15.73;100.00;97049.75;5029338;28;105592;-63
2022/06/11 05:27:10;;;;;;;4.43;4.07;;;;;;;15.90;100.00;97050.28;5034724;27;101965;-63
2022/06/11 05:30:03;;;;;;;4.40;4.00;;;;;;;15.93;100.00;97047.91;5029247;28;105614;-63
2022/06/11 05:32:35;;;;;;;4.30;4.00;;;;;;;15.54;100.00;97057.47;5029867;28;101979;-63
2022/06/11 05:35:30;;;;;;;7.00;4.60;;;;;;;15.40;100.00;97064.44;5029803;28;103937;-63
2022/06/11 05:38:01;;;;;;;5.03;4.23;;;;;;;15.71;100.00;97057.25;5030372;28;102652;-63
2022/06/11 05:40:33;;;;;;;4.77;4.10;;;;;;;15.94;100.00;97054.06;5031197;27;101686;-63
2022/06/11 05:43:00;;;;;;;5.27;4.40;;;;;;;16.14;100.00;97054.06;5031298;28;102377;-63
2022/06/11 05:45:33;;;;;;;4.93;4.53;;;;;;;15.98;100.00;97053.25;5030410;27;102762;-63
2022/06/11 05:48:09;;;;;;;4.77;4.27;;;;;;;16.26;100.00;97057.28;5031174;28;101699;-63
2022/06/11 05:50:41;;;;;;;3.93;3.63;;;;;;;16.31;100.00;97057.28;5033889;28;102445;-63
2022/06/11 05:53:09;;;;;;;4.57;4.17;;;;;;;16.52;100.00;97056.22;5030982;28;101698;-63
2022/06/11 05:55:41;;;;;;;4.30;3.90;;;;;;;16.62;100.00;97056.97;5030977;28;102439;-63
2022/06/11 05:58:11;;;;;;;4.20;3.80;;;;;;;16.86;100.00;97054.50;5030349;28;102778;-63
2022/06/11 06:00:41;;;;;;;5.93;3.90;;;;;;;16.80;100.00;97061.78;5029598;28;101914;-63
2022/06/11 06:03:08;;;;;;;3.93;3.53;;;;;;;16.87;100.00;97053.41;5030586;28;102369;-63
2022/06/11 06:05:52;;;;;;;3.43;3.13;;;;;;;17.04;100.00;97048.53;5029962;28;103165;-63
2022/06/11 06:08:19;;;;;;;3.70;3.40;;;;;;;16.94;100.00;97048.59;5029329;28;102044;-63
2022/06/11 06:10:47;;;;;;;3.53;3.23;;;;;;;17.14;100.00;97048.47;5030682;28;102348;-63
2022/06/11 06:15:59;;;;;;;3.87;3.03;;;;;;;16.93;100.00;97047.75;5029277;28;104067;-63
2022/06/11 06:18:35;;;;;;;4.13;3.73;;;;;;;17.11;100.00;97049.84;5029792;27;103061;-63
2022/06/11 06:21:03;;;;;;;3.43;3.07;;;;;;;17.23;100.00;97038.78;5028951;28;102148;-63
2022/06/11 06:23:32;;;;;;;5.17;3.17;;;;;;;17.18;100.00;97036.94;5030404;28;104119;-63
2022/06/11 06:26:09;;;;;;;3.63;2.97;;;;;;;17.48;100.00;97036.78;5029760;28;102573;-63
2022/06/11 06:28:37;;;;;;;3.30;3.00;;;;;;;17.45;100.00;97044.59;5030705;28;102004;-63
2022/06/11 06:31:07;;;;;;;3.07;2.87;;;;;;;17.53;100.00;97042.13;5030353;28;102722;-63
2022/06/11 06:33:35;;;;;;;2.93;2.70;;;;;;;17.60;100.00;97047.22;5033259;28;102734;-63
2022/06/11 06:36:05;;;;;;;3.10;2.90;;;;;;;17.64;100.00;97048.25;5030272;28;101703;-63
2022/06/11 06:38:32;;;;;;;2.90;2.70;;;;;;;17.84;100.00;97053.50;5028506;28;105805;-63
2022/06/11 06:41:00;;;;;;;3.33;3.03;;;;;;;18.13;100.00;97054.34;5030366;28;101824;-63
2022/06/11 06:43:27;;;;;;;3.00;2.80;;;;;;;18.11;100.00;97056.53;5030111;27;102549;-63
2022/06/11 06:45:55;;;;;;;3.10;2.80;;;;;;;18.08;100.00;97055.19;5028100;28;104383;-63
2022/06/11 06:48:50;;;;;;;4.37;2.67;;;;;;;18.39;100.00;97056.59;5030580;28;102083;-63
2022/06/11 06:51:18;;;;;;;2.57;2.47;;;;;;;18.40;100.00;97052.81;5029872;28;102806;-63
2022/06/11 06:53:45;;;;;;;3.40;2.60;;;;;;;18.48;100.00;97054.09;5027860;28;105539;-64
2022/06/11 06:56:13;;;;;;;4.07;2.40;;;;;;;18.45;100.00;97054.63;5032405;28;101834;-63
2022/06/11 06:58:41;;;;;;;2.37;2.27;;;;;;;18.60;100.00;97057.19;5027608;28;105781;-63
2022/06/11 07:01:08;;;;;;;2.80;2.47;;;;;;;19.06;100.00;97052.91;5028644;28;101772;-63
2022/06/11 07:03:36;;;;;;;4.57;2.90;;;;;;;18.84;100.00;97056.13;5028630;28;105235;-63
2022/06/11 07:06:05;;;;;;;3.37;2.63;;;;;;;19.09;100.00;97057.72;5027820;28;104542;-63
2022/06/11 07:08:32;;;;;;;2.90;2.70;;;;;;;19.35;100.00;97059.84;5029960;28;101828;-63
2022/06/11 07:11:00;;;;;;;3.17;2.73;;;;;;;19.49;100.00;97052.66;5031234;27;102518;-63
2022/06/11 07:13:29;;;;;;;2.87;2.60;;;;;;;19.55;100.00;97053.38;5031434;28;105352;-63
2022/06/11 07:15:57;;;;;;;3.27;2.50;;;;;;;19.24;100.00;97055.69;5033385;27;101838;-63
2022/06/11 07:18:35;;;;;;;2.83;2.63;;;;;;;19.28;100.00;97051.31;5036361;28;102408;-63
2022/06/11 07:21:06;;;;;;;2.60;2.40;;;;;;;19.63;100.00;97053.53;5033393;27;101923;-63
2022/06/11 07:23:38;;;;;;;2.77;2.50;;;;;;;19.75;100.00;97051.22;5033514;28;102906;-63
2022/06/11 07:26:11;;;;;;;2.70;2.50;;;;;;;20.02;100.00;97048.66;5032645;28;102676;-63
2022/06/11 07:28:43;;;;;;;2.73;2.53;;;;;;;20.23;100.00;97054.56;5033438;27;101729;-63
2022/06/11 07:31:10;;;;;;;4.23;2.80;;;;;;;20.12;100.00;97050.41;5033319;28;102836;-63
2022/06/11 07:33:38;;;;;;;2.73;2.50;;;;;;;20.41;100.00;97051.00;5032159;28;103219;-63
2022/06/11 07:36:37;;;;;;;3.47;2.60;;;;;;;20.58;100.00;97048.53;5031462;28;101924;-63
2022/06/11 07:39:05;;;;;;;3.07;2.40;;;;;;;20.87;100.00;97044.47;5033275;28;102370;-63
2022/06/11 07:41:32;;;;;;;4.07;2.60;;;;;;;20.42;100.00;97047.19;5035793;27;102619;-63
2022/06/11 07:43:59;;;;;;;2.47;2.27;;;;;;;20.14;100.00;97042.81;5032982;28;102491;-63
2022/06/11 07:46:27;;;;;;;2.40;2.20;;;;;;;20.91;100.00;97040.09;5032371;28;102723;-63
2022/06/11 07:48:59;;;;;;;4.63;2.10;;;;;;;21.02;100.00;97040.69;5031470;28;101917;-63
2022/06/11 07:51:26;;;;;;;4.03;2.40;;;;;;;21.37;100.00;97040.78;5032941;28;102384;-63
2022/06/11 07:53:54;;;;;;;2.47;2.27;;;;;;;21.47;100.00;97045.97;5032009;28;102927;-63
2022/06/11 07:56:22;;;;;;;2.63;2.37;;;;;;;21.01;100.00;97041.81;5032783;27;101869;-63
2022/06/11 07:58:49;;;;;;;3.13;1.87;;;;;;;21.41;100.00;97049.13;5032311;28;102608;-63
2022/06/11 08:01:17;;;;;;;2.97;1.93;;;;;;;21.55;100.00;97039.88;5032252;28;102852;-63
2022/06/11 08:03:44;;;;;;;2.10;1.90;;;;;;;22.08;100.00;97040.81;5034656;28;101992;-63
2022/06/11 08:06:12;;;;;;;3.77;2.30;;;;;;;21.92;100.00;97045.00;5030569;28;105909;-63
2022/06/11 08:08:39;;;;;;;2.60;2.10;;;;;;;22.07;100.00;97043.84;5032760;28;101712;-63
2022/06/11 08:11:08;;;;;;;1.97;1.87;;;;;;;22.48;100.00;97045.28;5032634;28;102329;-63
2022/06/11 08:13:35;;;;;;;2.40;1.97;;;;;;;22.76;100.00;97045.91;5030439;28;105430;-63
2022/06/11 08:16:14;;;;;;;3.20;2.37;;;;;;;22.88;100.00;97048.84;5032539;28;101840;-63
2022/06/11 08:18:41;;;;;;;2.87;2.03;;;;;;;23.00;100.00;97046.34;5031099;28;105736;-63
2022/06/11 08:21:09;;;;;;;2.10;2.00;;;;;;;22.90;100.00;97052.03;5030339;28;105846;-63
2022/06/11 08:23:39;;;;;;;4.10;2.20;;;;;;;23.01;100.00;97047.94;5033496;27;102053;-63
2022/06/11 08:26:08;;;;;;;3.07;2.63;;;;;;;21.59;100.00;97045.47;5030990;28;102601;-63
2022/06/11 08:28:36;;;;;;;3.50;2.27;;;;;;;21.64;100.00;97046.13;5032241;28;101706;-63
2022/06/11 08:31:05;;;;;;;2.93;2.60;;;;;;;22.19;100.00;97049.50;5032067;28;102591;-63
2022/06/11 08:33:32;;;;;;;2.53;2.33;;;;;;;21.59;100.00;97042.75;5029983;28;102746;-63
2022/06/11 08:36:50;;;;;;;2.67;2.23;;;;;;;21.95;100.00;97040.88;5030368;28;101862;-63
2022/06/11 08:39:17;;;;;;;2.70;2.27;;;;;;;22.34;100.00;97041.03;5032093;28;102611;-63
2022/06/11 08:41:45;;;;;;;2.70;2.50;;;;;;;22.64;100.00;97042.97;5029872;28;104017;-63
2022/06/11 08:44:15;;;;;;;3.10;2.27;;;;;;;22.16;100.00;97047.41;5030539;28;101971;-63
2022/06/11 08:46:45;;;;;;;2.43;2.20;;;;;;;22.44;100.00;97038.88;5033090;28;105168;-63
2022/06/11 08:49:21;;;;;;;5.17;2.40;;;;;;;22.97;100.00;97034.22;5030154;28;102250;-64
2022/06/11 08:51:54;;;;;;;2.30;2.10;;;;;;;23.30;100.00;97038.19;5031872;28;102569;-63
2022/06/11 08:54:25;;;;;;;3.57;2.23;;;;;;;23.44;100.00;97035.34;5029447;28;105343;-64
2022/06/11 08:57:00;;;;;;;2.27;2.07;;;;;;;23.12;100.00;97035.69;5031480;28;101753;-63
2022/06/11 08:59:48;;;;;;;2.63;2.10;;;;;;;22.63;100.00;97033.25;5029483;28;106341;-63
2022/06/11 09:02:38;;;;;;;2.17;2.00;;;;;;;23.38;100.00;97037.38;5029493;28;105869;-63
2022/06/11 09:05:28;;;;;;;2.37;2.03;;;;;;;23.84;100.00;97026.78;5031823;28;101714;-63
2022/06/11 09:08:08;;;;;;;2.40;2.20;;;;;;;23.74;100.00;97026.25;5030170;28;105233;-63
2022/06/11 09:10:52;;;;;;;3.17;2.60;;;;;;;23.82;100.00;97030.91;5034430;28;102673;-63
2022/06/11 09:13:52;;;;;;;2.60;2.40;;;;;;;23.09;100.00;97033.59;5031593;28;102627;-63
2022/06/11 09:16:25;;;;;;;3.17;2.60;;;;;;;23.43;100.00;97025.59;5020312;27;103840;-63
2022/06/11 09:19:29;;;;;;;2.33;2.13;;;;;;;23.87;99.93;97025.34;5031574;28;101889;-63
2022/06/11 09:22:07;;;;;;;2.87;1.90;;;;;;;23.27;100.00;97029.88;5030022;28;106606;-63
2022/06/11 09:25:13;;;;;;;2.40;2.20;;;;;;;24.07;100.00;97024.69;5031019;28;102742;-63
2022/06/11 09:27:47;;;;;;;2.47;2.20;;;;;;;22.79;100.00;97029.03;5030030;28;101795;-63
2022/06/11 09:30:19;;;;;;;2.50;2.30;;;;;;;23.23;96.97;97021.56;5031464;28;102334;-63
2022/06/11 09:32:52;;;;;;;3.27;2.17;;;;;;;23.47;95.02;97021.94;5030714;28;102537;-63
2022/06/11 09:35:38;;;;;;;1.90;1.80;;;;;;;24.21;100.00;97019.91;5034785;27;101684;-64
2022/06/11 09:38:19;;;;;;;1.97;1.87;;;;;;;24.31;92.27;97017.63;5030830;27;102805;-63
2022/06/11 09:40:51;;;;;;;3.40;1.87;;;;;;;24.50;92.16;97014.56;5029769;28;101958;-63
2022/06/11 09:43:31;;;;;;;2.57;2.37;;;;;;;23.60;91.08;97014.75;5030961;27;104658;-63
2022/06/11 09:46:12;;;;;;;2.30;2.10;;;;;;;23.80;90.21;97019.56;5029128;28;105747;-63
2022/06/11 09:49:31;;;;;;;2.77;1.90;;;;;;;24.68;100.00;97008.00;5029603;28;102053;-63
2022/06/11 09:52:05;;;;;;;2.90;1.83;;;;;;;24.79;86.56;97009.25;5031287;28;102680;-64
2022/06/11 09:54:54;;;;;;;1.90;1.80;;;;;;;24.90;82.33;97013.22;5030479;27;102539;-63
2022/06/11 09:57:30;;;;;;;2.07;1.93;;;;;;;25.35;87.55;97017.00;5031207;28;101801;-64
2022/06/11 10:00:03;;;;;;;3.47;2.10;;;;;;;25.81;90.43;97016.84;5031315;28;105107;-64
2022/06/11 10:02:41;;;;;;;2.73;2.00;;;;;;;25.75;88.89;97015.47;5027709;28;101954;-64
2022/06/11 10:05:45;;;;;;;1.90;1.80;;;;;;;25.96;76.36;97010.84;5029501;28;105593;-63
2022/06/11 10:08:25;;;;;;;2.07;1.87;;;;;;;26.07;83.38;97012.03;5028851;28;103890;-64
2022/06/11 10:10:54;;;;;;;2.20;1.77;;;;;;;25.68;65.30;97015.19;5029377;28;102273;-63
2022/06/11 10:13:38;;;;;;;1.70;1.60;;;;;;;25.78;77.86;97020.25;5029245;28;105257;-63
2022/06/11 10:16:26;;;;;;;1.83;1.67;;;;;;;26.20;78.56;97016.44;5028793;28;105454;-63
2022/06/11 10:19:31;;;;;;;1.97;1.60;;;;;;;26.12;67.41;97009.09;5030857;28;101697;-63
2022/06/11 10:22:06;;;;;;;2.40;1.70;;;;;;;25.90;90.70;97012.16;5030609;28;102429;-63
2022/06/11 10:24:37;;;;;;;2.00;1.80;;;;;;;26.35;93.59;97018.50;5031974;28;105547;-63
2022/06/11 10:27:09;;;;;;;2.47;1.60;;;;;;;25.69;78.98;97008.63;5030600;28;102328;-63
2022/06/11 10:29:43;;;;;;;2.10;2.00;;;;;;;24.91;77.98;97001.97;5030140;28;102748;-63
2022/06/11 10:32:15;;;;;;;2.43;2.23;;;;;;;24.20;84.26;97013.66;5030586;28;101676;-63
2022/06/11 10:35:14;;;;;;;2.00;1.90;;;;;;;24.87;81.73;96997.53;5030457;27;102275;-63
2022/06/11 10:37:46;;;;;;;2.10;1.90;;;;;;;25.84;80.58;97003.34;5028283;28;105437;-63
2022/06/11 10:40:22;;;;;;;1.90;1.80;;;;;;;26.68;86.63;97006.47;5030593;28;101797;-63
2022/06/11 10:42:59;;;;;;;1.90;1.80;;;;;;;27.31;73.08;97005.09;5030492;27;102382;-63
2022/06/11 10:45:27;;;;;;;1.60;1.50;;;;;;;27.68;63.75;97001.94;5032163;27;105773;-63
2022/06/11 10:47:57;;;;;;;2.23;1.73;;;;;;;26.74;58.28;97004.31;5032442;28;106763;-64
2022/06/11 10:50:29;;;;;;;1.53;1.43;;;;;;;25.93;59.31;97006.06;5031784;28;105372;-63
2022/06/11 10:53:03;;;;;;;3.03;1.50;;;;;;;26.45;64.82;97012.63;5033876;28;101927;-64
2022/06/11 10:55:55;;;;;;;1.80;1.70;;;;;;;26.74;67.80;97004.31;5032429;28;105593;-63
2022/06/11 10:58:28;;;;;;;1.70;1.60;;;;;;;27.32;65.20;96999.28;5033005;28;102156;-64
2022/06/11 11:00:59;;;;;;;1.60;1.50;;;;;;;27.44;55.08;96990.25;5032382;28;101864;-63
2022/06/11 11:03:36;;;;;;;1.67;1.40;;;;;;;27.66;57.06;96997.97;5032131;28;105156;-63
2022/06/11 11:06:08;;;;;;;1.83;1.60;;;;;;;27.42;57.33;96987.09;5033134;27;102558;-63
2022/06/11 11:08:50;;;;;;;1.40;1.30;;;;;;;27.01;50.80;96998.22;5037207;28;101719;-63
2022/06/11 11:11:18;;;;;;;1.30;1.20;;;;;;;26.83;52.03;96991.38;5033136;28;102492;-63
2022/06/11 11:13:47;;;;;;;1.40;1.30;;;;;;;26.46;57.55;96993.22;5033380;28;101807;-63
2022/06/11 11:16:23;;;;;;;1.33;1.23;;;;;;;27.05;51.76;96982.75;5033341;28;103016;-63
2022/06/11 11:19:03;;;;;;;1.30;1.20;;;;;;;27.93;50.94;96980.84;5032993;27;102551;-63
2022/06/11 11:21:33;;;;;;;1.40;1.30;;;;;;;28.19;50.49;96983.94;5033472;27;101751;-63
2022/06/11 11:24:10;;;;;;;1.60;1.50;;;;;;;28.29;50.95;96986.19;5033467;28;102453;-63
2022/06/11 11:26:41;;;;;;;1.30;1.20;;;;;;;29.02;51.59;96981.91;5032760;27;102604;-64
2022/06/11 11:29:13;;;;;;;1.83;1.30;;;;;;;28.70;48.68;96978.34;5033412;28;101797;-63
2022/06/11 11:31:44;;;;;;;1.63;1.50;;;;;;;29.32;47.75;96974.81;5036261;27;102418;-63
2022/06/11 11:34:18;;;;;;;1.98;1.40;;;;;;;29.15;47.49;96975.19;5033238;28;101859;-63
2022/06/11 11:36:46;;;;;;;1.45;1.33;;;;;;;28.88;44.18;96981.53;5033307;28;102330;-63
2022/06/11 11:39:25;;;;;;;2.20;1.73;;;;;;;26.47;45.39;96972.16;5031171;28;105623;-63
2022/06/11 11:42:01;;;;;;;2.57;1.57;;;;;;;27.37;45.83;96977.19;5033292;27;101675;-63
2022/06/11 11:44:29;;;;;;;2.50;1.60;;;;;;;27.11;48.24;96971.25;5033218;27;102520;-63
2022/06/11 11:47:01;;;;;;;1.67;1.57;;;;;;;27.23;46.91;96974.00;5031068;28;105785;-63
2022/06/11 11:49:32;;;;;;;2.57;1.40;;;;;;;26.84;47.14;96968.41;5032896;28;101752;-63
2022/06/11 11:52:05;;;;;;;1.10;1.00;;;;;;;27.83;49.10;96964.94;5031273;28;105629;-63
2022/06/11 11:54:47;;;;;;;1.70;1.30;;;;;;;28.40;47.77;96965.41;5034098;28;105650;-63
2022/06/11 11:57:15;;;;;;;1.80;1.20;;;;;;;26.62;47.99;96968.81;5031851;27;102851;-63
2022/06/11 11:59:49;;;;;;;1.37;1.13;;;;;;;27.86;47.69;96959.59;5031470;28;103166;-64